sensor_id;sensor_type;location;lat;lon;timestamp;P1;durP1;ratioP1;P2;durP2;ratioP2
6821;SDS011;3449;48.728;8.968;2022-11-20T00:01:05;4.90;;;3.60;;
6821;SDS011;3449;48.728;8.968;2022-11-20T00:03:32;3.70;;;2.63;;
6821;SDS011;3449;48.728;8.968;2022-11-20T00:06:01;4.73;;;3.13;;
6821;SDS011;3449;48.728;8.968;2022-11-20T00:08:28;6.10;;;3.77;;
6821;SDS011;3449;48.728;8.968;2022-11-20T00:10:55;8.30;;;4.30;;
6821;SDS011;3449;48.728;8.968;2022-11-20T00:13:22;5.53;;;3.37;;
6821;SDS011;3449;48.728;8.968;2022-11-20T00:15:56;4.97;;;3.50;;
6821;SDS011;3449;48.728;8.968;2022-11-20T00:18:23;4.60;;;3.40;;
6821;SDS011;3449;48.728;8.968;2022-11-20T00:20:50;6.40;;;4.10;;
6821;SDS011;3449;48.728;8.968;2022-11-20T00:23:19;7.83;;;3.67;;
6821;SDS011;3449;48.728;8.968;2022-11-20T00:25:46;4.83;;;3.40;;
6821;SDS011;3449;48.728;8.968;2022-11-20T00:28:13;6.50;;;3.40;;
6821;SDS011;3449;48.728;8.968;2022-11-20T00:30:40;12.50;;;4.33;;
6821;SDS011;3449;48.728;8.968;2022-11-20T00:33:06;4.83;;;3.63;;
6821;SDS011;3449;48.728;8.968;2022-11-20T00:35:33;6.20;;;3.97;;
6821;SDS011;3449;48.728;8.968;2022-11-20T00:38:00;5.50;;;3.67;;
6821;SDS011;3449;48.728;8.968;2022-11-20T00:40:28;12.37;;;3.57;;
6821;SDS011;3449;48.728;8.968;2022-11-20T00:42:55;5.77;;;3.47;;
6821;SDS011;3449;48.728;8.968;2022-11-20T00:45:22;5.50;;;3.77;;
6821;SDS011;3449;48.728;8.968;2022-11-20T00:47:49;7.60;;;4.63;;
6821;SDS011;3449;48.728;8.968;2022-11-20T00:50:16;5.70;;;3.50;;
6821;SDS011;3449;48.728;8.968;2022-11-20T00:52:43;6.63;;;4.03;;
6821;SDS011;3449;48.728;8.968;2022-11-20T00:55:10;8.17;;;4.10;;
6821;SDS011;3449;48.728;8.968;2022-11-20T00:57:38;5.63;;;3.60;;
6821;SDS011;3449;48.728;8.968;2022-11-20T01:00:05;9.10;;;4.40;;
6821;SDS011;3449;48.728;8.968;2022-11-20T01:02:33;8.90;;;4.20;;
6821;SDS011;3449;48.728;8.968;2022-11-20T01:05:00;5.70;;;4.13;;
6821;SDS011;3449;48.728;8.968;2022-11-20T01:07:27;6.23;;;3.67;;
6821;SDS011;3449;48.728;8.968;2022-11-20T01:09:54;6.80;;;3.90;;
6821;SDS011;3449;48.728;8.968;2022-11-20T01:12:20;7.07;;;3.27;;
6821;SDS011;3449;48.728;8.968;2022-11-20T01:14:49;4.10;;;3.10;;
6821;SDS011;3449;48.728;8.968;2022-11-20T01:17:15;6.20;;;3.70;;
6821;SDS011;3449;48.728;8.968;2022-11-20T01:19:42;5.90;;;2.90;;
6821;SDS011;3449;48.728;8.968;2022-11-20T01:22:09;5.97;;;3.07;;
6821;SDS011;3449;48.728;8.968;2022-11-20T01:24:36;7.70;;;3.70;;
6821;SDS011;3449;48.728;8.968;2022-11-20T01:27:03;7.83;;;4.10;;
6821;SDS011;3449;48.728;8.968;2022-11-20T01:29:30;5.47;;;3.03;;
6821;SDS011;3449;48.728;8.968;2022-11-20T01:31:58;3.43;;;2.80;;
6821;SDS011;3449;48.728;8.968;2022-11-20T01:34:25;3.87;;;2.90;;
6821;SDS011;3449;48.728;8.968;2022-11-20T01:36:52;4.10;;;3.27;;
6821;SDS011;3449;48.728;8.968;2022-11-20T01:39:20;4.23;;;3.20;;
6821;SDS011;3449;48.728;8.968;2022-11-20T01:41:48;5.00;;;3.30;;
6821;SDS011;3449;48.728;8.968;2022-11-20T01:47:28;4.53;;;2.97;;
6821;SDS011;3449;48.728;8.968;2022-11-20T01:49:58;8.37;;;4.47;;
6821;SDS011;3449;48.728;8.968;2022-11-20T01:52:33;5.90;;;3.50;;
6821;SDS011;3449;48.728;8.968;2022-11-20T01:55:05;6.83;;;4.80;;
6821;SDS011;3449;48.728;8.968;2022-11-20T01:57:35;5.77;;;3.63;;
6821;SDS011;3449;48.728;8.968;2022-11-20T02:00:04;5.40;;;3.20;;
6821;SDS011;3449;48.728;8.968;2022-11-20T02:02:35;10.50;;;4.67;;
6821;SDS011;3449;48.728;8.968;2022-11-20T02:05:04;7.77;;;4.67;;
6821;SDS011;3449;48.728;8.968;2022-11-20T02:07:38;4.43;;;3.73;;
6821;SDS011;3449;48.728;8.968;2022-11-20T02:10:05;8.60;;;3.73;;
6821;SDS011;3449;48.728;8.968;2022-11-20T02:12:32;6.57;;;4.10;;
6821;SDS011;3449;48.728;8.968;2022-11-20T02:15:17;6.27;;;3.63;;
6821;SDS011;3449;48.728;8.968;2022-11-20T02:17:45;7.70;;;3.90;;
6821;SDS011;3449;48.728;8.968;2022-11-20T02:20:12;4.90;;;3.50;;
6821;SDS011;3449;48.728;8.968;2022-11-20T02:22:41;5.63;;;3.87;;
6821;SDS011;3449;48.728;8.968;2022-11-20T02:25:16;8.70;;;3.93;;
6821;SDS011;3449;48.728;8.968;2022-11-20T02:27:44;4.30;;;3.50;;
6821;SDS011;3449;48.728;8.968;2022-11-20T02:30:11;6.53;;;3.37;;
6821;SDS011;3449;48.728;8.968;2022-11-20T02:32:38;8.27;;;4.10;;
6821;SDS011;3449;48.728;8.968;2022-11-20T02:35:07;4.90;;;3.37;;
6821;SDS011;3449;48.728;8.968;2022-11-20T02:37:35;7.27;;;3.40;;
6821;SDS011;3449;48.728;8.968;2022-11-20T02:40:05;4.33;;;3.27;;
6821;SDS011;3449;48.728;8.968;2022-11-20T02:42:34;4.47;;;2.90;;
6821;SDS011;3449;48.728;8.968;2022-11-20T02:45:02;7.20;;;3.80;;
6821;SDS011;3449;48.728;8.968;2022-11-20T02:47:29;5.93;;;4.27;;
6821;SDS011;3449;48.728;8.968;2022-11-20T02:49:56;6.27;;;3.50;;
6821;SDS011;3449;48.728;8.968;2022-11-20T02:52:23;11.40;;;4.20;;
6821;SDS011;3449;48.728;8.968;2022-11-20T02:54:50;6.83;;;4.00;;
6821;SDS011;3449;48.728;8.968;2022-11-20T02:57:17;7.83;;;4.03;;
6821;SDS011;3449;48.728;8.968;2022-11-20T02:59:45;5.70;;;3.90;;
6821;SDS011;3449;48.728;8.968;2022-11-20T03:02:12;8.00;;;3.70;;
6821;SDS011;3449;48.728;8.968;2022-11-20T03:04:39;7.63;;;4.50;;
6821;SDS011;3449;48.728;8.968;2022-11-20T03:07:07;15.57;;;4.97;;
6821;SDS011;3449;48.728;8.968;2022-11-20T03:09:34;5.53;;;4.20;;
6821;SDS011;3449;48.728;8.968;2022-11-20T03:12:01;11.80;;;5.13;;
6821;SDS011;3449;48.728;8.968;2022-11-20T03:14:28;6.47;;;4.30;;
6821;SDS011;3449;48.728;8.968;2022-11-20T03:16:56;6.60;;;3.90;;
6821;SDS011;3449;48.728;8.968;2022-11-20T03:19:23;4.70;;;3.73;;
6821;SDS011;3449;48.728;8.968;2022-11-20T03:21:50;6.40;;;4.20;;
6821;SDS011;3449;48.728;8.968;2022-11-20T03:24:17;7.30;;;5.10;;
6821;SDS011;3449;48.728;8.968;2022-11-20T03:26:44;5.93;;;3.97;;
6821;SDS011;3449;48.728;8.968;2022-11-20T03:29:11;4.70;;;3.50;;
6821;SDS011;3449;48.728;8.968;2022-11-20T03:31:38;8.70;;;4.60;;
6821;SDS011;3449;48.728;8.968;2022-11-20T03:34:08;20.03;;;4.00;;
6821;SDS011;3449;48.728;8.968;2022-11-20T03:36:37;8.83;;;4.63;;
6821;SDS011;3449;48.728;8.968;2022-11-20T03:39:04;7.33;;;4.33;;
6821;SDS011;3449;48.728;8.968;2022-11-20T03:41:35;6.77;;;4.20;;
6821;SDS011;3449;48.728;8.968;2022-11-20T03:44:04;5.57;;;4.20;;
6821;SDS011;3449;48.728;8.968;2022-11-20T03:46:32;11.40;;;4.77;;
6821;SDS011;3449;48.728;8.968;2022-11-20T03:48:59;6.57;;;3.93;;
6821;SDS011;3449;48.728;8.968;2022-11-20T03:51:27;6.70;;;4.57;;
6821;SDS011;3449;48.728;8.968;2022-11-20T03:53:56;8.93;;;4.17;;
6821;SDS011;3449;48.728;8.968;2022-11-20T03:56:25;5.63;;;3.90;;
6821;SDS011;3449;48.728;8.968;2022-11-20T03:58:53;6.60;;;4.53;;
6821;SDS011;3449;48.728;8.968;2022-11-20T04:01:21;6.90;;;3.97;;
6821;SDS011;3449;48.728;8.968;2022-11-20T04:03:51;4.37;;;3.40;;
6821;SDS011;3449;48.728;8.968;2022-11-20T04:06:19;11.30;;;3.97;;
6821;SDS011;3449;48.728;8.968;2022-11-20T04:08:48;10.10;;;5.00;;
6821;SDS011;3449;48.728;8.968;2022-11-20T04:11:16;6.23;;;4.60;;
6821;SDS011;3449;48.728;8.968;2022-11-20T04:13:46;9.23;;;4.67;;
6821;SDS011;3449;48.728;8.968;2022-11-20T04:16:15;9.67;;;4.53;;
6821;SDS011;3449;48.728;8.968;2022-11-20T04:18:42;8.03;;;3.90;;
6821;SDS011;3449;48.728;8.968;2022-11-20T04:21:09;6.33;;;4.03;;
6821;SDS011;3449;48.728;8.968;2022-11-20T04:23:36;9.63;;;4.40;;
6821;SDS011;3449;48.728;8.968;2022-11-20T04:26:06;7.50;;;4.80;;
6821;SDS011;3449;48.728;8.968;2022-11-20T04:28:34;6.83;;;4.30;;
6821;SDS011;3449;48.728;8.968;2022-11-20T04:31:03;7.73;;;5.00;;
6821;SDS011;3449;48.728;8.968;2022-11-20T04:33:31;8.90;;;4.30;;
6821;SDS011;3449;48.728;8.968;2022-11-20T04:36:02;8.43;;;4.67;;
6821;SDS011;3449;48.728;8.968;2022-11-20T04:38:29;7.30;;;4.10;;
6821;SDS011;3449;48.728;8.968;2022-11-20T04:40:57;6.93;;;3.90;;
6821;SDS011;3449;48.728;8.968;2022-11-20T04:43:26;5.87;;;3.93;;
6821;SDS011;3449;48.728;8.968;2022-11-20T04:45:53;5.77;;;3.57;;
6821;SDS011;3449;48.728;8.968;2022-11-20T04:48:21;8.33;;;5.00;;
6821;SDS011;3449;48.728;8.968;2022-11-20T04:50:48;16.43;;;4.13;;
6821;SDS011;3449;48.728;8.968;2022-11-20T04:53:15;9.97;;;4.47;;
6821;SDS011;3449;48.728;8.968;2022-11-20T04:55:42;6.77;;;3.97;;
6821;SDS011;3449;48.728;8.968;2022-11-20T04:58:09;5.73;;;4.10;;
6821;SDS011;3449;48.728;8.968;2022-11-20T05:00:38;5.33;;;3.87;;
6821;SDS011;3449;48.728;8.968;2022-11-20T05:03:05;9.03;;;3.50;;
6821;SDS011;3449;48.728;8.968;2022-11-20T05:05:33;7.90;;;4.47;;
6821;SDS011;3449;48.728;8.968;2022-11-20T05:08:00;7.20;;;4.03;;
6821;SDS011;3449;48.728;8.968;2022-11-20T05:10:27;6.03;;;3.77;;
6821;SDS011;3449;48.728;8.968;2022-11-20T05:12:54;13.80;;;4.50;;
6821;SDS011;3449;48.728;8.968;2022-11-20T05:15:20;12.47;;;4.80;;
6821;SDS011;3449;48.728;8.968;2022-11-20T05:17:49;3.63;;;3.20;;
6821;SDS011;3449;48.728;8.968;2022-11-20T05:20:16;6.43;;;4.20;;
6821;SDS011;3449;48.728;8.968;2022-11-20T05:22:44;7.00;;;3.90;;
6821;SDS011;3449;48.728;8.968;2022-11-20T05:25:11;8.20;;;4.80;;
6821;SDS011;3449;48.728;8.968;2022-11-20T05:27:38;5.97;;;4.07;;
6821;SDS011;3449;48.728;8.968;2022-11-20T05:30:05;6.57;;;4.37;;
6821;SDS011;3449;48.728;8.968;2022-11-20T05:32:33;9.20;;;4.93;;
6821;SDS011;3449;48.728;8.968;2022-11-20T05:35:01;5.63;;;4.40;;
6821;SDS011;3449;48.728;8.968;2022-11-20T05:37:29;9.50;;;4.63;;
6821;SDS011;3449;48.728;8.968;2022-11-20T05:39:55;5.97;;;4.13;;
6821;SDS011;3449;48.728;8.968;2022-11-20T05:42:22;8.40;;;4.47;;
6821;SDS011;3449;48.728;8.968;2022-11-20T05:44:58;5.37;;;4.07;;
6821;SDS011;3449;48.728;8.968;2022-11-20T05:47:26;4.83;;;3.20;;
6821;SDS011;3449;48.728;8.968;2022-11-20T05:49:53;6.87;;;4.20;;
6821;SDS011;3449;48.728;8.968;2022-11-20T05:52:22;4.53;;;3.47;;
6821;SDS011;3449;48.728;8.968;2022-11-20T05:54:49;4.13;;;3.43;;
6821;SDS011;3449;48.728;8.968;2022-11-20T05:57:16;6.17;;;3.43;;
6821;SDS011;3449;48.728;8.968;2022-11-20T05:59:43;6.40;;;4.07;;
6821;SDS011;3449;48.728;8.968;2022-11-20T06:02:09;10.93;;;3.97;;
6821;SDS011;3449;48.728;8.968;2022-11-20T06:04:36;7.73;;;3.73;;
6821;SDS011;3449;48.728;8.968;2022-11-20T06:07:04;9.27;;;3.63;;
6821;SDS011;3449;48.728;8.968;2022-11-20T06:09:33;5.00;;;3.30;;
6821;SDS011;3449;48.728;8.968;2022-11-20T06:12:00;5.10;;;3.17;;
6821;SDS011;3449;48.728;8.968;2022-11-20T06:14:27;4.27;;;3.10;;
6821;SDS011;3449;48.728;8.968;2022-11-20T06:16:53;3.07;;;2.77;;
6821;SDS011;3449;48.728;8.968;2022-11-20T06:19:20;4.63;;;2.93;;
6821;SDS011;3449;48.728;8.968;2022-11-20T06:21:48;3.07;;;2.57;;
6821;SDS011;3449;48.728;8.968;2022-11-20T06:24:15;3.80;;;2.40;;
6821;SDS011;3449;48.728;8.968;2022-11-20T06:26:44;4.87;;;2.83;;
6821;SDS011;3449;48.728;8.968;2022-11-20T06:29:11;6.67;;;2.73;;
6821;SDS011;3449;48.728;8.968;2022-11-20T06:31:38;4.63;;;2.77;;
6821;SDS011;3449;48.728;8.968;2022-11-20T06:34:05;7.77;;;2.73;;
6821;SDS011;3449;48.728;8.968;2022-11-20T06:36:32;2.93;;;2.00;;
6821;SDS011;3449;48.728;8.968;2022-11-20T06:38:59;2.63;;;2.20;;
6821;SDS011;3449;48.728;8.968;2022-11-20T06:41:26;2.93;;;2.47;;
6821;SDS011;3449;48.728;8.968;2022-11-20T06:43:55;5.97;;;3.07;;
6821;SDS011;3449;48.728;8.968;2022-11-20T06:46:22;3.93;;;3.33;;
6821;SDS011;3449;48.728;8.968;2022-11-20T06:48:49;4.87;;;2.90;;
6821;SDS011;3449;48.728;8.968;2022-11-20T06:51:16;8.37;;;3.00;;
6821;SDS011;3449;48.728;8.968;2022-11-20T06:53:43;6.13;;;2.97;;
6821;SDS011;3449;48.728;8.968;2022-11-20T06:56:10;3.27;;;2.53;;
6821;SDS011;3449;48.728;8.968;2022-11-20T06:58:37;3.50;;;2.70;;
6821;SDS011;3449;48.728;8.968;2022-11-20T07:01:06;3.40;;;2.63;;
6821;SDS011;3449;48.728;8.968;2022-11-20T07:03:34;5.53;;;3.80;;
6821;SDS011;3449;48.728;8.968;2022-11-20T07:06:01;2.63;;;2.33;;
6821;SDS011;3449;48.728;8.968;2022-11-20T07:08:29;4.93;;;3.40;;
6821;SDS011;3449;48.728;8.968;2022-11-20T07:10:56;3.90;;;2.80;;
6821;SDS011;3449;48.728;8.968;2022-11-20T07:13:24;5.90;;;3.40;;
6821;SDS011;3449;48.728;8.968;2022-11-20T07:15:51;7.53;;;2.90;;
6821;SDS011;3449;48.728;8.968;2022-11-20T07:18:20;4.10;;;2.70;;
6821;SDS011;3449;48.728;8.968;2022-11-20T07:20:47;5.80;;;2.87;;
6821;SDS011;3449;48.728;8.968;2022-11-20T07:23:13;4.23;;;2.80;;
6821;SDS011;3449;48.728;8.968;2022-11-20T07:25:40;4.13;;;3.00;;
6821;SDS011;3449;48.728;8.968;2022-11-20T07:28:07;3.87;;;2.97;;
6821;SDS011;3449;48.728;8.968;2022-11-20T07:30:35;5.27;;;3.03;;
6821;SDS011;3449;48.728;8.968;2022-11-20T07:33:03;5.10;;;2.93;;
6821;SDS011;3449;48.728;8.968;2022-11-20T07:35:31;5.10;;;3.77;;
6821;SDS011;3449;48.728;8.968;2022-11-20T07:37:58;5.43;;;2.70;;
6821;SDS011;3449;48.728;8.968;2022-11-20T07:40:25;4.27;;;2.53;;
6821;SDS011;3449;48.728;8.968;2022-11-20T07:42:52;5.13;;;2.80;;
6821;SDS011;3449;48.728;8.968;2022-11-20T07:45:21;2.50;;;2.30;;
6821;SDS011;3449;48.728;8.968;2022-11-20T07:47:49;5.80;;;2.67;;
6821;SDS011;3449;48.728;8.968;2022-11-20T07:50:17;3.80;;;2.47;;
6821;SDS011;3449;48.728;8.968;2022-11-20T07:52:45;3.03;;;1.90;;
6821;SDS011;3449;48.728;8.968;2022-11-20T07:55:12;2.37;;;1.90;;
6821;SDS011;3449;48.728;8.968;2022-11-20T07:57:39;1.93;;;1.33;;
6821;SDS011;3449;48.728;8.968;2022-11-20T08:00:07;4.70;;;1.90;;
6821;SDS011;3449;48.728;8.968;2022-11-20T08:02:36;3.27;;;2.00;;
6821;SDS011;3449;48.728;8.968;2022-11-20T08:05:04;4.17;;;1.43;;
6821;SDS011;3449;48.728;8.968;2022-11-20T08:07:34;2.13;;;1.60;;
6821;SDS011;3449;48.728;8.968;2022-11-20T08:10:04;2.77;;;1.40;;
6821;SDS011;3449;48.728;8.968;2022-11-20T08:12:31;1.70;;;1.43;;
6821;SDS011;3449;48.728;8.968;2022-11-20T08:15:16;1.93;;;1.77;;
6821;SDS011;3449;48.728;8.968;2022-11-20T08:17:43;1.50;;;1.30;;
6821;SDS011;3449;48.728;8.968;2022-11-20T08:20:10;1.77;;;1.20;;
6821;SDS011;3449;48.728;8.968;2022-11-20T08:22:37;2.40;;;1.40;;
6821;SDS011;3449;48.728;8.968;2022-11-20T08:25:05;2.50;;;1.40;;
6821;SDS011;3449;48.728;8.968;2022-11-20T08:27:33;1.23;;;1.00;;
6821;SDS011;3449;48.728;8.968;2022-11-20T08:30:00;1.53;;;1.10;;
6821;SDS011;3449;48.728;8.968;2022-11-20T08:32:27;1.13;;;0.97;;
6821;SDS011;3449;48.728;8.968;2022-11-20T08:34:53;1.33;;;1.10;;
6821;SDS011;3449;48.728;8.968;2022-11-20T08:37:20;1.03;;;0.93;;
6821;SDS011;3449;48.728;8.968;2022-11-20T08:39:47;1.50;;;1.40;;
6821;SDS011;3449;48.728;8.968;2022-11-20T08:42:15;1.10;;;0.80;;
6821;SDS011;3449;48.728;8.968;2022-11-20T08:44:42;1.60;;;1.10;;
6821;SDS011;3449;48.728;8.968;2022-11-20T08:47:09;4.00;;;1.20;;
6821;SDS011;3449;48.728;8.968;2022-11-20T08:49:36;1.33;;;1.10;;
6821;SDS011;3449;48.728;8.968;2022-11-20T08:52:03;1.27;;;1.17;;
6821;SDS011;3449;48.728;8.968;2022-11-20T08:54:30;1.37;;;1.03;;
6821;SDS011;3449;48.728;8.968;2022-11-20T08:56:57;1.30;;;1.10;;
6821;SDS011;3449;48.728;8.968;2022-11-20T08:59:25;1.33;;;1.23;;
6821;SDS011;3449;48.728;8.968;2022-11-20T09:01:52;1.00;;;0.70;;
6821;SDS011;3449;48.728;8.968;2022-11-20T09:04:19;1.70;;;1.00;;
6821;SDS011;3449;48.728;8.968;2022-11-20T09:06:46;1.23;;;1.20;;
6821;SDS011;3449;48.728;8.968;2022-11-20T09:09:15;2.90;;;1.40;;
6821;SDS011;3449;48.728;8.968;2022-11-20T09:11:42;1.87;;;1.30;;
6821;SDS011;3449;48.728;8.968;2022-11-20T09:14:09;2.93;;;2.50;;
6821;SDS011;3449;48.728;8.968;2022-11-20T09:16:37;4.20;;;2.27;;
6821;SDS011;3449;48.728;8.968;2022-11-20T09:19:04;2.33;;;1.57;;
6821;SDS011;3449;48.728;8.968;2022-11-20T09:21:31;2.27;;;1.77;;
6821;SDS011;3449;48.728;8.968;2022-11-20T09:23:58;2.77;;;1.13;;
6821;SDS011;3449;48.728;8.968;2022-11-20T09:26:25;1.23;;;0.80;;
6821;SDS011;3449;48.728;8.968;2022-11-20T09:28:52;2.07;;;1.20;;
6821;SDS011;3449;48.728;8.968;2022-11-20T09:31:21;1.43;;;0.90;;
6821;SDS011;3449;48.728;8.968;2022-11-20T09:33:51;1.37;;;1.00;;
6821;SDS011;3449;48.728;8.968;2022-11-20T09:36:18;1.37;;;0.80;;
6821;SDS011;3449;48.728;8.968;2022-11-20T09:38:46;0.80;;;0.60;;
6821;SDS011;3449;48.728;8.968;2022-11-20T09:41:19;0.87;;;0.73;;
6821;SDS011;3449;48.728;8.968;2022-11-20T09:44:04;0.83;;;0.50;;
6821;SDS011;3449;48.728;8.968;2022-11-20T09:46:45;1.00;;;0.90;;
6821;SDS011;3449;48.728;8.968;2022-11-20T09:49:22;1.30;;;0.90;;
6821;SDS011;3449;48.728;8.968;2022-11-20T09:51:59;0.83;;;0.50;;
6821;SDS011;3449;48.728;8.968;2022-11-20T09:54:30;0.60;;;0.60;;
6821;SDS011;3449;48.728;8.968;2022-11-20T09:56:59;1.13;;;0.73;;
6821;SDS011;3449;48.728;8.968;2022-11-20T09:59:35;0.80;;;0.70;;
6821;SDS011;3449;48.728;8.968;2022-11-20T10:02:11;1.57;;;0.70;;
6821;SDS011;3449;48.728;8.968;2022-11-20T10:04:45;1.00;;;0.70;;
6821;SDS011;3449;48.728;8.968;2022-11-20T10:07:16;1.07;;;0.73;;
6821;SDS011;3449;48.728;8.968;2022-11-20T10:09:49;0.83;;;0.70;;
6821;SDS011;3449;48.728;8.968;2022-11-20T10:12:20;1.17;;;0.70;;
6821;SDS011;3449;48.728;8.968;2022-11-20T10:14:58;1.93;;;1.13;;
6821;SDS011;3449;48.728;8.968;2022-11-20T10:17:46;1.80;;;1.70;;
6821;SDS011;3449;48.728;8.968;2022-11-20T10:20:25;1.73;;;1.43;;
6821;SDS011;3449;48.728;8.968;2022-11-20T10:23:04;3.50;;;1.20;;
6821;SDS011;3449;48.728;8.968;2022-11-20T10:25:46;1.20;;;1.00;;
6821;SDS011;3449;48.728;8.968;2022-11-20T10:28:24;2.60;;;1.73;;
6821;SDS011;3449;48.728;8.968;2022-11-20T10:31:08;1.63;;;1.10;;
6821;SDS011;3449;48.728;8.968;2022-11-20T10:33:38;1.33;;;1.10;;
6821;SDS011;3449;48.728;8.968;2022-11-20T10:36:12;1.40;;;0.70;;
6821;SDS011;3449;48.728;8.968;2022-11-20T10:38:43;1.90;;;1.20;;
6821;SDS011;3449;48.728;8.968;2022-11-20T10:41:16;1.37;;;1.27;;
6821;SDS011;3449;48.728;8.968;2022-11-20T10:43:56;0.90;;;0.90;;
6821;SDS011;3449;48.728;8.968;2022-11-20T10:46:29;1.53;;;1.03;;
6821;SDS011;3449;48.728;8.968;2022-11-20T10:49:04;0.70;;;0.70;;
6821;SDS011;3449;48.728;8.968;2022-11-20T10:51:39;1.87;;;1.27;;
6821;SDS011;3449;48.728;8.968;2022-11-20T10:54:18;2.83;;;2.00;;
6821;SDS011;3449;48.728;8.968;2022-11-20T10:56:50;1.20;;;1.10;;
6821;SDS011;3449;48.728;8.968;2022-11-20T11:02:17;0.90;;;0.80;;
6821;SDS011;3449;48.728;8.968;2022-11-20T11:04:46;1.63;;;1.43;;
6821;SDS011;3449;48.728;8.968;2022-11-20T11:07:16;2.47;;;1.50;;
6821;SDS011;3449;48.728;8.968;2022-11-20T11:09:48;2.40;;;1.43;;
6821;SDS011;3449;48.728;8.968;2022-11-20T11:12:16;1.63;;;1.10;;
6821;SDS011;3449;48.728;8.968;2022-11-20T11:14:44;3.23;;;1.73;;
6821;SDS011;3449;48.728;8.968;2022-11-20T11:17:23;5.90;;;2.00;;
6821;SDS011;3449;48.728;8.968;2022-11-20T11:20:03;1.33;;;1.23;;
6821;SDS011;3449;48.728;8.968;2022-11-20T11:22:35;3.10;;;1.30;;
6821;SDS011;3449;48.728;8.968;2022-11-20T11:25:12;1.47;;;0.80;;
6821;SDS011;3449;48.728;8.968;2022-11-20T11:27:54;2.30;;;1.00;;
6821;SDS011;3449;48.728;8.968;2022-11-20T11:30:24;0.90;;;0.90;;
6821;SDS011;3449;48.728;8.968;2022-11-20T11:33:02;1.47;;;1.13;;
6821;SDS011;3449;48.728;8.968;2022-11-20T11:35:33;1.33;;;0.83;;
6821;SDS011;3449;48.728;8.968;2022-11-20T11:38:05;1.17;;;1.03;;
6821;SDS011;3449;48.728;8.968;2022-11-20T11:40:37;3.10;;;0.87;;
6821;SDS011;3449;48.728;8.968;2022-11-20T11:43:07;1.00;;;0.80;;
6821;SDS011;3449;48.728;8.968;2022-11-20T11:45:59;3.27;;;1.30;;
6821;SDS011;3449;48.728;8.968;2022-11-20T11:48:26;1.23;;;0.77;;
6821;SDS011;3449;48.728;8.968;2022-11-20T11:50:53;2.33;;;1.17;;
6821;SDS011;3449;48.728;8.968;2022-11-20T11:53:22;4.67;;;0.80;;
6821;SDS011;3449;48.728;8.968;2022-11-20T11:55:54;1.53;;;0.90;;
6821;SDS011;3449;48.728;8.968;2022-11-20T12:01:14;3.20;;;0.90;;
6821;SDS011;3449;48.728;8.968;2022-11-20T12:03:50;2.17;;;0.93;;
6821;SDS011;3449;48.728;8.968;2022-11-20T12:06:21;1.33;;;0.90;;
6821;SDS011;3449;48.728;8.968;2022-11-20T12:08:53;1.30;;;1.07;;
6821;SDS011;3449;48.728;8.968;2022-11-20T12:11:24;0.70;;;0.53;;
6821;SDS011;3449;48.728;8.968;2022-11-20T12:14:00;3.23;;;0.70;;
6821;SDS011;3449;48.728;8.968;2022-11-20T12:16:33;2.07;;;0.80;;
6821;SDS011;3449;48.728;8.968;2022-11-20T12:19:03;2.67;;;0.80;;
6821;SDS011;3449;48.728;8.968;2022-11-20T12:21:37;2.10;;;0.67;;
6821;SDS011;3449;48.728;8.968;2022-11-20T12:24:19;3.80;;;1.30;;
6821;SDS011;3449;48.728;8.968;2022-11-20T12:27:06;2.03;;;0.60;;
6821;SDS011;3449;48.728;8.968;2022-11-20T12:29:56;2.70;;;0.70;;
6821;SDS011;3449;48.728;8.968;2022-11-20T12:32:40;1.27;;;0.53;;
6821;SDS011;3449;48.728;8.968;2022-11-20T12:38:28;2.10;;;1.00;;
6821;SDS011;3449;48.728;8.968;2022-11-20T12:41:20;2.73;;;0.63;;
6821;SDS011;3449;48.728;8.968;2022-11-20T12:44:16;1.03;;;0.70;;
6821;SDS011;3449;48.728;8.968;2022-11-20T12:47:13;2.30;;;0.97;;
6821;SDS011;3449;48.728;8.968;2022-11-20T12:49:47;1.80;;;0.90;;
6821;SDS011;3449;48.728;8.968;2022-11-20T12:52:22;1.80;;;0.90;;
6821;SDS011;3449;48.728;8.968;2022-11-20T12:55:04;1.10;;;0.83;;
6821;SDS011;3449;48.728;8.968;2022-11-20T12:57:54;2.20;;;0.60;;
6821;SDS011;3449;48.728;8.968;2022-11-20T13:00:27;1.67;;;0.73;;
6821;SDS011;3449;48.728;8.968;2022-11-20T13:03:06;0.80;;;0.70;;
6821;SDS011;3449;48.728;8.968;2022-11-20T13:05:46;3.30;;;0.70;;
6821;SDS011;3449;48.728;8.968;2022-11-20T13:08:22;0.90;;;0.60;;
6821;SDS011;3449;48.728;8.968;2022-11-20T13:10:52;3.93;;;0.93;;
6821;SDS011;3449;48.728;8.968;2022-11-20T13:13:29;2.77;;;1.00;;
6821;SDS011;3449;48.728;8.968;2022-11-20T13:16:02;5.43;;;0.90;;
6821;SDS011;3449;48.728;8.968;2022-11-20T13:18:34;1.00;;;0.70;;
6821;SDS011;3449;48.728;8.968;2022-11-20T13:21:13;1.70;;;0.60;;
6821;SDS011;3449;48.728;8.968;2022-11-20T13:23:43;3.00;;;1.47;;
6821;SDS011;3449;48.728;8.968;2022-11-20T13:26:15;4.00;;;1.20;;
6821;SDS011;3449;48.728;8.968;2022-11-20T13:28:46;1.77;;;0.80;;
6821;SDS011;3449;48.728;8.968;2022-11-20T13:31:26;1.37;;;0.80;;
6821;SDS011;3449;48.728;8.968;2022-11-20T13:33:57;1.80;;;0.90;;
6821;SDS011;3449;48.728;8.968;2022-11-20T13:36:26;1.00;;;0.90;;
6821;SDS011;3449;48.728;8.968;2022-11-20T13:38:55;1.57;;;0.90;;
6821;SDS011;3449;48.728;8.968;2022-11-20T13:41:23;1.03;;;0.70;;
6821;SDS011;3449;48.728;8.968;2022-11-20T13:43:57;1.67;;;1.17;;
6821;SDS011;3449;48.728;8.968;2022-11-20T13:46:34;2.73;;;0.77;;
6821;SDS011;3449;48.728;8.968;2022-11-20T13:49:06;4.20;;;2.50;;
6821;SDS011;3449;48.728;8.968;2022-11-20T13:51:36;2.90;;;2.03;;
6821;SDS011;3449;48.728;8.968;2022-11-20T13:57:13;4.57;;;1.73;;
6821;SDS011;3449;48.728;8.968;2022-11-20T13:59:56;3.80;;;1.50;;
6821;SDS011;3449;48.728;8.968;2022-11-20T14:02:25;1.27;;;1.17;;
6821;SDS011;3449;48.728;8.968;2022-11-20T14:04:56;4.80;;;1.30;;
6821;SDS011;3449;48.728;8.968;2022-11-20T14:07:26;2.00;;;1.00;;
6821;SDS011;3449;48.728;8.968;2022-11-20T14:10:01;1.37;;;1.03;;
6821;SDS011;3449;48.728;8.968;2022-11-20T14:12:28;3.90;;;1.17;;
6821;SDS011;3449;48.728;8.968;2022-11-20T14:14:58;4.60;;;0.93;;
6821;SDS011;3449;48.728;8.968;2022-11-20T14:17:29;4.13;;;1.50;;
6821;SDS011;3449;48.728;8.968;2022-11-20T14:19:58;1.40;;;1.30;;
6821;SDS011;3449;48.728;8.968;2022-11-20T14:22:27;3.23;;;1.00;;
6821;SDS011;3449;48.728;8.968;2022-11-20T14:25:01;2.27;;;1.20;;
6821;SDS011;3449;48.728;8.968;2022-11-20T14:27:32;6.83;;;1.53;;
6821;SDS011;3449;48.728;8.968;2022-11-20T14:30:04;1.83;;;1.27;;
6821;SDS011;3449;48.728;8.968;2022-11-20T14:32:32;6.57;;;1.30;;
6821;SDS011;3449;48.728;8.968;2022-11-20T14:35:03;1.20;;;1.00;;
6821;SDS011;3449;48.728;8.968;2022-11-20T14:37:36;0.87;;;0.80;;
6821;SDS011;3449;48.728;8.968;2022-11-20T14:40:05;2.93;;;1.23;;
6821;SDS011;3449;48.728;8.968;2022-11-20T14:42:48;4.50;;;1.53;;
6821;SDS011;3449;48.728;8.968;2022-11-20T14:45:16;5.53;;;1.77;;
6821;SDS011;3449;48.728;8.968;2022-11-20T14:47:44;2.63;;;1.57;;
6821;SDS011;3449;48.728;8.968;2022-11-20T14:50:12;1.73;;;1.33;;
6821;SDS011;3449;48.728;8.968;2022-11-20T14:52:49;1.47;;;1.37;;
6821;SDS011;3449;48.728;8.968;2022-11-20T14:55:24;2.00;;;1.87;;
6821;SDS011;3449;48.728;8.968;2022-11-20T14:57:54;2.93;;;1.53;;
6821;SDS011;3449;48.728;8.968;2022-11-20T15:00:24;3.87;;;2.27;;
6821;SDS011;3449;48.728;8.968;2022-11-20T15:02:51;4.30;;;2.03;;
6821;SDS011;3449;48.728;8.968;2022-11-20T15:05:19;2.27;;;1.30;;
6821;SDS011;3449;48.728;8.968;2022-11-20T15:07:48;2.17;;;1.50;;
6821;SDS011;3449;48.728;8.968;2022-11-20T15:10:20;3.63;;;1.80;;
6821;SDS011;3449;48.728;8.968;2022-11-20T15:12:48;1.67;;;1.07;;
6821;SDS011;3449;48.728;8.968;2022-11-20T15:15:18;1.43;;;1.13;;
6821;SDS011;3449;48.728;8.968;2022-11-20T15:17:49;3.10;;;1.10;;
6821;SDS011;3449;48.728;8.968;2022-11-20T15:20:16;10.53;;;5.13;;
6821;SDS011;3449;48.728;8.968;2022-11-20T15:22:44;7.50;;;1.70;;
6821;SDS011;3449;48.728;8.968;2022-11-20T15:25:11;2.83;;;1.33;;
6821;SDS011;3449;48.728;8.968;2022-11-20T15:27:39;1.27;;;1.07;;
6821;SDS011;3449;48.728;8.968;2022-11-20T15:30:11;4.43;;;1.23;;
6821;SDS011;3449;48.728;8.968;2022-11-20T15:32:40;1.80;;;1.53;;
6821;SDS011;3449;48.728;8.968;2022-11-20T15:35:08;1.97;;;1.40;;
6821;SDS011;3449;48.728;8.968;2022-11-20T15:37:36;2.20;;;0.90;;
6821;SDS011;3449;48.728;8.968;2022-11-20T15:40:03;2.40;;;1.77;;
6821;SDS011;3449;48.728;8.968;2022-11-20T15:42:32;1.73;;;1.10;;
6821;SDS011;3449;48.728;8.968;2022-11-20T15:45:00;3.27;;;1.77;;
6821;SDS011;3449;48.728;8.968;2022-11-20T15:47:28;2.43;;;1.73;;